createdAt,value
2022-11-19T00:02:10.395Z,16.85
2022-11-19T00:04:43.492Z,18.45
2022-11-19T00:07:16.307Z,17.55
2022-11-19T00:09:50.434Z,17.82
2022-11-19T00:12:40.975Z,15.43
2022-11-19T00:15:14.129Z,15.80
2022-11-19T00:17:46.863Z,15.25
2022-11-19T00:20:20.097Z,18.10
2022-11-19T00:22:57.237Z,18.60
2022-11-19T00:25:31.272Z,16.73
2022-11-19T00:28:04.451Z,16.23
2022-11-19T00:30:52.422Z,15.48
2022-11-19T00:33:11.853Z,14.70
2022-11-19T00:35:44.328Z,15.28
2022-11-19T00:38:16.844Z,14.45
2022-11-19T00:40:49.362Z,12.35
2022-11-19T00:43:39.476Z,13.28
2022-11-19T00:46:11.836Z,14.05
2022-11-19T00:48:45.018Z,13.22
2022-11-19T00:51:18.501Z,12.35
2022-11-19T00:53:50.786Z,12.78
2022-11-19T00:56:25.232Z,12.63
2022-11-19T00:58:57.596Z,13.35
2022-11-19T01:01:30.290Z,12.90
2022-11-19T01:04:02.727Z,10.82
2022-11-19T01:06:36.084Z,11.85
2022-11-19T01:09:08.961Z,12.55
2022-11-19T01:11:41.549Z,8.33
2022-11-19T01:14:13.868Z,10.50
2022-11-19T01:16:46.376Z,9.15
2022-11-19T01:19:19.723Z,9.88
2022-11-19T01:21:52.840Z,10.75
2022-11-19T01:24:25.349Z,9.60
2022-11-19T01:26:57.681Z,8.33
2022-11-19T01:29:30.015Z,9.55
2022-11-19T01:32:02.392Z,9.10
2022-11-19T01:34:34.817Z,8.53
2022-11-19T01:37:07.410Z,7.97
2022-11-19T01:39:39.780Z,7.80
2022-11-19T01:42:23.284Z,10.35
2022-11-19T01:45:08.172Z,7.30
2022-11-19T01:47:40.985Z,7.22
2022-11-19T01:50:13.509Z,7.58
2022-11-19T01:52:46.192Z,8.03
2022-11-19T01:55:19.311Z,7.70
2022-11-19T01:57:58.720Z,7.17
2022-11-19T02:00:31.876Z,7.15
2022-11-19T02:03:04.237Z,8.40
2022-11-19T02:05:36.569Z,6.45
2022-11-19T02:08:11.395Z,7.28
2022-11-19T02:14:03.093Z,7.70
2022-11-19T02:16:43.452Z,7.22
2022-11-19T02:19:58.882Z,6.37
2022-11-19T02:23:09.882Z,6.45
2022-11-19T02:26:01.904Z,5.53
2022-11-19T02:29:04.629Z,6.20
2022-11-19T02:32:02.128Z,5.67
2022-11-19T02:34:58.685Z,5.78
2022-11-19T02:37:48.310Z,5.90
2022-11-19T02:40:30.477Z,6.20
2022-11-19T02:43:16.635Z,5.90
2022-11-19T02:45:56.433Z,6.30
2022-11-19T02:48:39.153Z,5.03
2022-11-19T02:51:11.899Z,5.90
2022-11-19T02:53:44.475Z,5.03
2022-11-19T02:56:37.396Z,5.45
2022-11-19T02:59:27.737Z,5.28
2022-11-19T03:02:18.329Z,7.58
2022-11-19T03:04:50.737Z,4.85
2022-11-19T03:07:23.105Z,5.72
2022-11-19T03:10:01.679Z,4.70
2022-11-19T03:12:55.018Z,5.00
2022-11-19T03:15:58.632Z,5.42
2022-11-19T03:18:46.362Z,4.60
2022-11-19T03:21:40.328Z,4.60
2022-11-19T03:24:26.250Z,5.17
2022-11-19T03:27:17.683Z,5.00
2022-11-19T03:29:52.292Z,4.85
2022-11-19T03:32:29.291Z,5.03
2022-11-19T03:35:05.103Z,4.60
2022-11-19T03:37:38.778Z,4.60
2022-11-19T03:40:12.339Z,4.17
2022-11-19T03:42:45.449Z,4.37
2022-11-19T03:45:21.964Z,3.60
2022-11-19T03:47:54.391Z,4.65
2022-11-19T03:50:39.891Z,4.15
2022-11-19T03:53:12.271Z,4.05
2022-11-19T03:55:55.452Z,4.00
2022-11-19T03:58:28.079Z,3.85
2022-11-19T04:01:00.905Z,3.80
2022-11-19T04:03:33.302Z,3.50
2022-11-19T04:06:06.715Z,4.17
2022-11-19T04:08:39.057Z,3.70
2022-11-19T04:11:14.685Z,4.60
2022-11-19T04:13:47.214Z,3.77
2022-11-19T04:16:20.169Z,3.80
2022-11-19T04:18:52.589Z,3.72
2022-11-19T04:21:24.984Z,4.12
2022-11-19T04:23:58.944Z,3.20
2022-11-19T04:26:31.327Z,4.00
2022-11-19T04:29:04.716Z,3.85
2022-11-19T04:31:37.910Z,3.60
2022-11-19T04:34:10.334Z,4.47
2022-11-19T04:36:43.787Z,4.50
2022-11-19T04:39:17.250Z,3.95
2022-11-19T04:41:49.897Z,4.20
2022-11-19T04:44:22.584Z,4.40
2022-11-19T04:46:55.382Z,6.67
2022-11-19T04:49:27.983Z,4.47
2022-11-19T04:52:00.729Z,4.33
2022-11-19T04:54:33.296Z,4.42
2022-11-19T04:57:06.146Z,4.58
2022-11-19T04:59:39.076Z,4.60
2022-11-19T05:02:12.548Z,4.70
2022-11-19T05:04:46.476Z,3.92
2022-11-19T05:07:19.465Z,3.83
2022-11-19T05:09:52.976Z,3.60
2022-11-19T05:12:25.509Z,3.98
2022-11-19T05:14:57.871Z,3.90
2022-11-19T05:17:30.356Z,3.80
2022-11-19T05:20:02.840Z,3.25
2022-11-19T05:22:35.439Z,3.17
2022-11-19T05:25:08.724Z,2.98
2022-11-19T05:27:41.299Z,2.83
2022-11-19T05:30:14.297Z,3.45
2022-11-19T05:32:47.680Z,3.62
2022-11-19T05:35:20.059Z,2.92
2022-11-19T05:37:52.749Z,3.42
2022-11-19T05:40:26.277Z,3.27
2022-11-19T05:43:00.562Z,3.77
2022-11-19T05:45:33.124Z,2.95
2022-11-19T05:48:07.157Z,3.35
2022-11-19T05:53:11.692Z,4.17
2022-11-19T05:55:44.985Z,3.00
2022-11-19T05:58:17.312Z,3.40
2022-11-19T06:00:50.269Z,3.70
2022-11-19T06:03:22.564Z,3.90
2022-11-19T06:05:55.083Z,3.50
2022-11-19T06:08:27.640Z,3.58
2022-11-19T06:11:01.636Z,3.45
2022-11-19T06:13:34.805Z,3.87
2022-11-19T06:16:07.897Z,3.60
2022-11-19T06:18:40.617Z,3.87
2022-11-19T06:21:14.351Z,3.75
2022-11-19T06:23:46.931Z,3.72
2022-11-19T06:26:26.906Z,4.62
2022-11-19T06:28:59.224Z,3.75
2022-11-19T06:31:31.699Z,4.53
2022-11-19T06:34:04.855Z,4.00
2022-11-19T06:36:41.188Z,4.17
2022-11-19T06:39:11.566Z,5.42
2022-11-19T06:41:44.246Z,4.40
2022-11-19T06:44:16.736Z,4.25
2022-11-19T06:46:50.091Z,5.30
2022-11-19T06:49:22.800Z,4.55
2022-11-19T06:51:55.365Z,4.50
2022-11-19T06:54:28.174Z,4.58
2022-11-19T06:57:00.983Z,3.85
2022-11-19T06:59:35.136Z,4.37
2022-11-19T07:02:08.482Z,4.00
2022-11-19T07:04:41.835Z,5.25
2022-11-19T07:07:14.523Z,4.47
2022-11-19T07:09:46.958Z,3.52
2022-11-19T07:12:19.419Z,3.95
2022-11-19T07:14:52.003Z,4.00
2022-11-19T07:17:24.485Z,5.62
2022-11-19T07:19:56.838Z,3.90
2022-11-19T07:22:29.629Z,3.60
2022-11-19T07:25:02.014Z,4.20
2022-11-19T07:27:35.219Z,4.70
2022-11-19T07:30:09.658Z,4.95
2022-11-19T07:32:44.477Z,4.72
2022-11-19T07:35:17.258Z,5.08
2022-11-19T07:37:50.036Z,4.92
2022-11-19T07:40:22.605Z,5.50
2022-11-19T07:42:55.306Z,5.53
2022-11-19T07:45:28.689Z,5.42
2022-11-19T07:48:01.179Z,5.65
2022-11-19T07:50:33.674Z,5.85
2022-11-19T07:53:06.276Z,5.53
2022-11-19T07:55:39.373Z,6.03
2022-11-19T07:58:11.686Z,7.35
2022-11-19T08:00:44.536Z,6.37
2022-11-19T08:03:17.999Z,6.15
2022-11-19T08:05:51.006Z,6.45
2022-11-19T08:08:23.610Z,6.70
2022-11-19T08:10:56.327Z,7.20
2022-11-19T08:13:28.931Z,7.08
2022-11-19T08:16:03.593Z,7.33
2022-11-19T08:18:36.506Z,6.78
2022-11-19T08:21:11.264Z,6.70
2022-11-19T08:23:44.625Z,7.37
2022-11-19T08:26:16.970Z,7.37
2022-11-19T08:28:49.333Z,7.15
2022-11-19T08:31:21.903Z,7.37
2022-11-19T08:33:54.613Z,7.50
2022-11-19T08:36:27.932Z,7.85
2022-11-19T08:39:01.099Z,7.83
2022-11-19T08:41:52.032Z,8.15
2022-11-19T08:44:24.294Z,7.58
2022-11-19T08:46:57.265Z,8.63
2022-11-19T08:49:29.673Z,19.42
2022-11-19T08:52:01.963Z,7.47
2022-11-19T08:54:34.395Z,11.78
2022-11-19T08:57:06.960Z,7.55
2022-11-19T08:59:39.437Z,16.05
2022-11-19T09:02:13.245Z,9.00
2022-11-19T09:04:45.990Z,8.93
2022-11-19T09:07:18.759Z,8.85
2022-11-19T09:09:51.320Z,10.45
2022-11-19T09:12:23.869Z,9.50
2022-11-19T09:14:56.367Z,9.93
2022-11-19T09:17:29.870Z,9.77
2022-11-19T09:20:03.356Z,10.48
2022-11-19T09:22:36.155Z,9.25
2022-11-19T09:25:10.311Z,9.20
2022-11-19T09:27:43.164Z,10.88
2022-11-19T09:30:16.571Z,11.43
2022-11-19T09:32:50.438Z,12.43
2022-11-19T09:35:22.953Z,12.65
2022-11-19T09:37:56.289Z,10.63
2022-11-19T09:40:29.809Z,9.78
2022-11-19T09:43:35.839Z,12.28
2022-11-19T09:46:36.755Z,12.85
2022-11-19T09:49:14.364Z,11.50
2022-11-19T09:51:52.615Z,10.58
2022-11-19T09:54:24.988Z,9.48
2022-11-19T09:57:03.120Z,10.45
2022-11-19T10:02:22.978Z,11.03
2022-11-19T10:04:56.328Z,8.83
2022-11-19T10:07:54.401Z,10.75
2022-11-19T10:10:41.472Z,10.08
2022-11-19T10:13:46.315Z,7.25
2022-11-19T10:17:11.886Z,7.33
2022-11-19T10:20:00.921Z,8.23
2022-11-19T10:22:40.238Z,7.70
2022-11-19T10:25:17.451Z,7.03
2022-11-19T10:28:00.419Z,7.87
2022-11-19T10:30:32.991Z,7.42
2022-11-19T10:33:22.446Z,8.15
2022-11-19T10:36:02.055Z,7.78
2022-11-19T10:38:49.943Z,8.38
2022-11-19T10:43:57.780Z,10.50
2022-11-19T10:46:30.248Z,16.37
2022-11-19T10:49:02.931Z,10.28
2022-11-19T10:51:41.722Z,11.85
2022-11-19T10:54:23.959Z,12.07
2022-11-19T10:56:56.507Z,10.65
2022-11-19T10:59:29.721Z,9.38
2022-11-19T11:02:06.806Z,10.05
2022-11-19T11:04:40.088Z,9.03
2022-11-19T11:07:12.807Z,9.43
2022-11-19T11:09:45.684Z,9.75
2022-11-19T11:12:41.683Z,10.20
2022-11-19T11:15:25.712Z,9.43
2022-11-19T11:20:38.870Z,10.03
2022-11-19T11:23:20.202Z,9.00
2022-11-19T11:26:07.531Z,9.53
2022-11-19T11:28:56.485Z,9.60
2022-11-19T11:31:45.773Z,9.35
2022-11-19T11:34:43.521Z,12.00
2022-11-19T11:37:14.896Z,12.07
2022-11-19T11:39:47.984Z,11.43
2022-11-19T11:42:21.212Z,10.23
2022-11-19T11:45:01.367Z,10.55
2022-11-19T11:47:39.657Z,12.33
2022-11-19T11:50:18.873Z,10.80
2022-11-19T11:52:54.256Z,9.10
2022-11-19T11:55:31.801Z,10.95
2022-11-19T11:58:06.739Z,9.08
2022-11-19T12:00:41.365Z,10.58
2022-11-19T12:03:20.269Z,10.68
2022-11-19T12:06:09.534Z,10.35
2022-11-19T12:09:10.764Z,9.83
2022-11-19T12:11:56.677Z,9.55
2022-11-19T12:14:53.146Z,10.23
2022-11-19T12:17:49.872Z,10.68
2022-11-19T12:20:38.958Z,10.70
2022-11-19T12:23:35.925Z,9.08
2022-11-19T12:26:34.082Z,9.98
2022-11-19T12:29:20.285Z,10.70
2022-11-19T12:32:13.743Z,9.60
2022-11-19T12:35:38.951Z,11.12
2022-11-19T12:38:42.682Z,9.30
2022-11-19T12:41:48.650Z,9.30
2022-11-19T12:44:31.553Z,11.12
2022-11-19T12:47:20.882Z,11.05
2022-11-19T12:50:21.101Z,11.12
2022-11-19T12:53:23.936Z,11.78
2022-11-19T12:56:10.250Z,9.70
2022-11-19T12:58:53.463Z,12.70
2022-11-19T13:01:32.395Z,10.80
2022-11-19T13:04:19.242Z,11.18
2022-11-19T13:07:08.053Z,14.05
2022-11-19T13:09:49.706Z,10.43
2022-11-19T13:12:26.694Z,10.63
2022-11-19T13:15:22.375Z,10.08
2022-11-19T13:17:57.554Z,9.83
2022-11-19T13:20:57.343Z,11.28
2022-11-19T13:23:44.632Z,12.43
2022-11-19T13:26:30.418Z,12.28
2022-11-19T13:29:35.114Z,10.75
2022-11-19T14:17:12.113Z,10.08
2022-11-19T14:20:13.558Z,11.28
2022-11-19T14:23:14.993Z,9.75
2022-11-19T14:26:06.462Z,12.90
2022-11-19T14:28:44.918Z,10.48
2022-11-19T14:31:20.087Z,11.45
2022-11-19T14:33:59.902Z,11.88
2022-11-19T14:36:48.978Z,10.00
2022-11-19T14:39:36.075Z,12.05
2022-11-19T14:42:19.634Z,11.20
2022-11-19T14:45:08.884Z,10.03
2022-11-19T14:47:42.198Z,10.23
2022-11-19T14:50:30.878Z,11.48
2022-11-19T14:53:03.281Z,11.53
2022-11-19T14:55:35.979Z,11.22
2022-11-19T14:58:24.436Z,10.58
2022-11-19T15:01:09.605Z,11.12
2022-11-19T15:03:42.443Z,9.85
2022-11-19T15:08:57.731Z,10.18
2022-11-19T15:12:00.714Z,11.08
2022-11-19T15:14:42.133Z,11.35
2022-11-19T15:17:15.317Z,10.70
2022-11-19T15:20:11.027Z,12.68
2022-11-19T15:23:13.654Z,11.43
2022-11-19T15:26:02.978Z,11.03
2022-11-19T15:28:54.786Z,18.90
2022-11-19T15:32:00.724Z,11.85
2022-11-19T15:35:19.171Z,13.25
2022-11-19T15:38:20.468Z,12.60
2022-11-19T15:40:54.371Z,13.10
2022-11-19T15:43:34.131Z,12.37
2022-11-19T15:46:26.037Z,10.40
2022-11-19T15:49:24.410Z,11.12
2022-11-19T15:52:17.877Z,10.60
2022-11-19T15:54:47.975Z,10.58
2022-11-19T15:57:27.059Z,10.63
2022-11-19T16:00:02.556Z,10.60
2022-11-19T16:02:43.023Z,13.95
2022-11-19T16:05:33.283Z,13.03
2022-11-19T16:08:08.661Z,11.83
2022-11-19T16:10:46.197Z,10.63
2022-11-19T16:13:42.631Z,11.70
2022-11-19T16:16:45.157Z,13.85
2022-11-19T16:19:18.877Z,13.70
2022-11-19T16:21:59.090Z,13.25
2022-11-19T16:24:49.216Z,13.58
2022-11-19T16:27:24.508Z,13.53
2022-11-19T16:29:56.997Z,11.97
2022-11-19T16:32:29.351Z,12.93
2022-11-19T16:35:31.233Z,12.78
2022-11-19T16:38:03.771Z,13.75
2022-11-19T16:40:54.408Z,13.93
2022-11-19T16:43:27.709Z,14.05
2022-11-19T16:46:00.218Z,12.88
2022-11-19T16:48:52.717Z,12.75
2022-11-19T16:51:40.112Z,14.80
2022-11-19T16:54:13.846Z,13.13
2022-11-19T16:56:47.735Z,13.45
2022-11-19T16:59:27.221Z,12.60
2022-11-19T17:02:00.158Z,12.13
2022-11-19T17:04:33.332Z,13.15
2022-11-19T17:07:06.407Z,12.55
2022-11-19T17:09:44.846Z,14.90
2022-11-19T17:12:28.664Z,14.50
2022-11-19T17:15:02.670Z,14.53
2022-11-19T17:17:42.842Z,15.90
2022-11-19T17:20:35.608Z,13.93
2022-11-19T17:23:23.675Z,13.48
2022-11-19T17:26:09.561Z,13.30
2022-11-19T17:28:46.628Z,17.48
2022-11-19T17:31:23.523Z,14.23
2022-11-19T17:34:09.708Z,13.85
2022-11-19T17:36:43.847Z,15.10
2022-11-19T17:39:22.535Z,14.00
2022-11-19T17:42:09.321Z,15.20
2022-11-19T17:44:41.907Z,13.90
2022-11-19T17:47:23.878Z,16.05
2022-11-19T17:49:57.537Z,14.03
2022-11-19T17:52:31.869Z,15.83
2022-11-19T17:55:22.671Z,16.17
2022-11-19T17:57:55.410Z,16.93
2022-11-19T18:00:28.191Z,18.60
2022-11-19T18:03:03.199Z,18.27
2022-11-19T18:05:37.328Z,21.77
2022-11-19T18:08:09.656Z,17.05
2022-11-19T18:10:46.663Z,16.27
2022-11-19T18:13:24.436Z,20.23
2022-11-19T18:15:58.229Z,19.60
2022-11-19T18:18:31.279Z,18.95
2022-11-19T18:21:03.966Z,19.57
2022-11-19T18:23:37.983Z,20.52
2022-11-19T18:26:14.088Z,17.90
2022-11-19T18:28:49.060Z,21.10
2022-11-19T18:31:23.823Z,19.02
2022-11-19T18:33:57.533Z,18.50
2022-11-19T18:36:31.431Z,16.82
2022-11-19T18:39:04.067Z,17.55
2022-11-19T18:41:36.689Z,17.62
2022-11-19T18:44:32.154Z,16.52
2022-11-19T18:49:39.797Z,17.50
2022-11-19T18:52:15.752Z,14.98
2022-11-19T18:54:48.547Z,15.45
2022-11-19T18:57:21.213Z,15.60
2022-11-19T18:59:53.832Z,13.43
2022-11-19T19:02:26.415Z,13.15
2022-11-19T19:04:59.344Z,14.45
2022-11-19T19:07:31.933Z,14.45
2022-11-19T19:10:05.522Z,15.85
2022-11-19T19:12:38.712Z,12.82
2022-11-19T19:15:12.005Z,12.15
2022-11-19T19:17:46.432Z,11.55
2022-11-19T19:20:20.167Z,13.13
2022-11-19T19:22:52.817Z,12.40
2022-11-19T19:25:25.694Z,12.03
2022-11-19T19:27:58.166Z,13.10
2022-11-19T19:30:30.602Z,15.30
2022-11-19T19:33:03.220Z,18.40
2022-11-19T19:35:37.462Z,12.58
2022-11-19T19:38:11.031Z,15.58
2022-11-19T19:40:44.671Z,13.15
2022-11-19T19:43:18.762Z,14.40
2022-11-19T19:45:51.260Z,16.93
2022-11-19T19:48:24.341Z,14.07
2022-11-19T19:50:56.859Z,14.63
2022-11-19T19:53:29.254Z,12.45
2022-11-19T19:56:06.396Z,16.23
2022-11-19T19:58:41.139Z,12.88
2022-11-19T20:01:20.198Z,13.08
2022-11-19T20:03:54.926Z,15.23
2022-11-19T20:06:28.667Z,14.28
2022-11-19T20:09:07.030Z,13.45
2022-11-19T20:11:37.734Z,13.53
2022-11-19T20:14:11.530Z,15.15
2022-11-19T20:16:44.052Z,14.47
2022-11-19T20:19:16.664Z,11.12
2022-11-19T20:21:49.045Z,17.48
2022-11-19T20:24:22.793Z,13.83
2022-11-19T20:26:55.936Z,13.75
2022-11-19T20:29:28.615Z,13.90
2022-11-19T20:32:01.723Z,14.13
2022-11-19T20:34:35.523Z,15.10
2022-11-19T20:37:07.917Z,13.40
2022-11-19T20:39:40.890Z,13.15
2022-11-19T20:42:31.493Z,13.75
2022-11-19T20:45:04.423Z,13.70
2022-11-19T20:47:37.086Z,11.33
2022-11-19T20:50:09.879Z,9.70
2022-11-19T20:52:42.949Z,10.70
2022-11-19T20:55:16.089Z,10.85
2022-11-19T20:57:48.446Z,9.20
2022-11-19T21:00:21.341Z,9.98
2022-11-19T21:02:53.739Z,9.40
2022-11-19T21:05:26.716Z,12.50
2022-11-19T21:07:59.826Z,12.68
2022-11-19T21:10:32.444Z,12.93
2022-11-19T21:13:05.783Z,10.38
2022-11-19T21:15:38.431Z,12.80
2022-11-19T21:18:11.293Z,11.80
2022-11-19T21:20:45.424Z,11.05
2022-11-19T21:23:19.346Z,11.95
2022-11-19T21:25:51.713Z,10.82
2022-11-19T21:28:25.499Z,12.23
2022-11-19T21:30:58.044Z,12.63
2022-11-19T21:33:30.604Z,12.98
2022-11-19T21:36:04.942Z,13.20
2022-11-19T21:41:09.888Z,14.83
2022-11-19T21:43:42.501Z,14.30
2022-11-19T21:46:15.240Z,15.53
2022-11-19T21:48:47.954Z,13.70
2022-11-19T21:51:24.585Z,13.72
2022-11-19T21:53:58.775Z,13.00
2022-11-19T21:56:36.857Z,13.95
2022-11-19T21:59:05.633Z,12.95
2022-11-19T22:01:38.689Z,15.58
2022-11-19T22:04:14.010Z,13.72
2022-11-19T22:06:47.309Z,13.15
2022-11-19T22:09:20.578Z,13.28
2022-11-19T22:11:53.890Z,12.68
2022-11-19T22:14:26.577Z,13.32
2022-11-19T22:16:59.149Z,13.65
2022-11-19T22:19:32.754Z,12.78
2022-11-19T22:22:05.613Z,12.65
2022-11-19T22:24:38.107Z,11.75
2022-11-19T22:27:10.879Z,13.58
2022-11-19T22:29:43.738Z,13.85
2022-11-19T22:32:16.559Z,13.83
2022-11-19T22:34:49.693Z,16.67
2022-11-19T22:37:22.228Z,12.68
2022-11-19T22:39:54.811Z,16.42
2022-11-19T22:42:27.321Z,13.98
2022-11-19T22:44:59.872Z,13.08
2022-11-19T22:47:32.741Z,13.13
2022-11-19T22:50:26.664Z,15.85
2022-11-19T22:52:59.523Z,14.85
2022-11-19T22:55:31.850Z,16.82
2022-11-19T22:58:05.532Z,14.45
2022-11-19T23:00:44.179Z,14.07
2022-11-19T23:03:17.205Z,13.00
2022-11-19T23:05:54.127Z,13.85
2022-11-19T23:08:27.616Z,15.28
2022-11-19T23:11:02.100Z,14.83
2022-11-19T23:13:39.241Z,16.90
2022-11-19T23:16:18.990Z,17.70
2022-11-19T23:18:53.369Z,15.38
2022-11-19T23:21:28.383Z,17.52
2022-11-19T23:24:01.812Z,15.70
2022-11-19T23:26:34.516Z,16.93
2022-11-19T23:29:06.971Z,17.07
2022-11-19T23:31:40.752Z,16.93
2022-11-19T23:34:13.365Z,15.13
2022-11-19T23:36:45.815Z,17.60
2022-11-19T23:39:19.968Z,16.67
2022-11-19T23:41:53.912Z,16.55
2022-11-19T23:44:26.379Z,18.12
2022-11-19T23:46:59.123Z,17.50
2022-11-19T23:49:31.624Z,17.92
2022-11-19T23:52:03.919Z,17.70
2022-11-19T23:54:36.446Z,16.40
2022-11-19T23:57:08.915Z,16.25
2022-11-19T23:59:44.038Z,19.15
